PWSweather.com
Personal Weather Stations
Station Observations
KJ4AJP
Beautiful Downtown Gardner, Martin, TN 38237

Beautiful Downtown GardnerMartin, TN 38237

Lat: 36.358, Lon: -88.8994

Elevation: 384.3

Station Type: TP1080WC

http://weather.mambm.com/

High Low Average
Temperature 69.4°F20.8°F 34.0°F1.1°F 53.3°F11.8°F
Dew Point 69.2°F20.7°F 33.7°F0.9°F 53.0°F11.7°F
Winds 6.0 mph -9.7 mph - Calm Calm 1.9 mph 3.1 mph
Wind Gusts 16.8 mph27.0 mph 1.6 mph2.6 mph 7.0 mph11.3 mph
Humidity 99% 99% 99%
Pressure 30.34 in1027.40 in 29.99 in1015.60 in -
Precipitation 2.92 in74.20 in - -
Hour Temp Dew Point Humidity Winds Wind Gusts Pressure Precip Precip Rate Daily Precip Total
12:00 AM 61.9°F16.6°C 61.6°F16.4°C 99% 0.7 mph N1.1 kmh N 2.2 mph3.5 kmh 30.02 in1016.6 mb 0.00 in0.0 mm 0.00 in0.0 mm 0.00 in0.0 mm
12:15 AM 61.7°F16.5°C 61.4°F16.3°C 99% Calm Calm 2.2 mph3.5 kmh 30.02 in1016.6 mb 0.00 in0.0 mm 0.00 in0.0 mm 0.00 in0.0 mm
12:30 AM 61.9°F16.6°C 61.6°F16.4°C 99% Calm Calm 1.6 mph2.6 kmh 30.02 in1016.6 mb 0.00 in0.0 mm 0.00 in0.0 mm 0.00 in0.0 mm
12:45 AM 61.7°F16.5°C 61.4°F16.3°C 99% Calm Calm 1.6 mph2.6 kmh 30.01 in1016.3 mb 0.00 in0.0 mm 0.00 in0.0 mm 0.00 in0.0 mm
01:00 AM 61.9°F16.6°C 61.6°F16.4°C 99% 0.7 mph N1.1 kmh N 3.1 mph5.0 kmh 29.99 in1015.6 mb 0.01 in0.3 mm 0.01 in0.3 mm 0.01 in0.3 mm
01:15 AM 61.9°F16.6°C 61.6°F16.4°C 99% 0.7 mph NNE1.1 kmh NNE 2.2 mph3.5 kmh 29.99 in1015.6 mb 0.05 in1.3 mm 0.16 in4.1 mm 0.05 in1.3 mm
01:30 AM 61.7°F16.5°C 61.4°F16.3°C 99% 1.6 mph N2.6 kmh N 2.2 mph3.5 kmh 29.99 in1015.6 mb 0.05 in1.3 mm 0.00 in0.0 mm 0.05 in1.3 mm
01:45 AM 61.7°F16.5°C 61.4°F16.3°C 99% 0.7 mph SSE1.1 kmh SSE 3.8 mph6.1 kmh 30.01 in1016.3 mb 0.07 in1.8 mm 0.08 in2.0 mm 0.07 in1.8 mm
02:00 AM 69.4°F20.8°C 69.2°F20.7°C 99% 1.6 mph SE2.6 kmh SE 3.8 mph6.1 kmh 30.01 in1016.3 mb 0.06 in1.5 mm 0.00 in0.0 mm 0.07 in1.8 mm
02:15 AM 61.7°F16.5°C 61.4°F16.3°C 99% 0.7 mph SE1.1 kmh SE 4.5 mph7.2 kmh 30.01 in1016.3 mb 0.05 in1.3 mm 0.00 in0.0 mm 0.09 in2.3 mm
02:30 AM 61.9°F16.6°C 61.6°F16.4°C 99% 0.7 mph NW1.1 kmh NW 3.1 mph5.0 kmh 30.02 in1016.6 mb 0.04 in1.0 mm 0.00 in0.0 mm 0.09 in2.3 mm
02:45 AM 62.1°F16.7°C 61.8°F16.6°C 99% Calm Calm 2.2 mph3.5 kmh 30.04 in1017.3 mb 0.02 in0.5 mm 0.00 in0.0 mm 0.09 in2.3 mm
03:00 AM 62.1°F16.7°C 61.8°F16.6°C 99% 1.6 mph NNW2.6 kmh NNW 3.1 mph5.0 kmh 30.02 in1016.6 mb 0.01 in0.3 mm 0.00 in0.0 mm 0.09 in2.3 mm
03:15 AM 62.1°F16.7°C 61.8°F16.6°C 99% 1.6 mph NNW2.6 kmh NNW 3.8 mph6.1 kmh 30.01 in1016.3 mb 0.00 in0.0 mm 0.00 in0.0 mm 0.09 in2.3 mm
03:30 AM 61.9°F16.6°C 61.6°F16.4°C 99% Calm Calm 3.1 mph5.0 kmh 30.02 in1016.6 mb 0.00 in0.0 mm 0.00 in0.0 mm 0.09 in2.3 mm
03:45 AM 61.9°F16.6°C 61.6°F16.4°C 99% 1.6 mph N2.6 kmh N 3.8 mph6.1 kmh 30.02 in1016.6 mb 0.00 in0.0 mm 0.00 in0.0 mm 0.09 in2.3 mm
04:00 AM 62.4°F16.9°C 62.2°F16.8°C 99% 1.6 mph N2.6 kmh N 3.8 mph6.1 kmh 30.02 in1016.6 mb 0.00 in0.0 mm 0.00 in0.0 mm 0.09 in2.3 mm
04:15 AM 61.5°F16.4°C 61.3°F16.3°C 99% 0.7 mph N1.1 kmh N 3.8 mph6.1 kmh 30.03 in1016.9 mb 0.00 in0.0 mm 0.00 in0.0 mm 0.09 in2.3 mm
04:30 AM 61.3°F16.3°C 61.1°F16.2°C 99% 1.6 mph NNW2.6 kmh NNW 5.4 mph8.7 kmh 30.03 in1016.9 mb 0.00 in0.0 mm 0.00 in0.0 mm 0.09 in2.3 mm
04:45 AM 60.8°F16.0°C 60.5°F15.8°C 99% 0.7 mph NW1.1 kmh NW 7.6 mph12.2 kmh 30.05 in1017.6 mb 0.00 in0.0 mm 0.00 in0.0 mm 0.09 in2.3 mm
05:00 AM 60.4°F15.8°C 60.2°F15.7°C 99% 0.7 mph NNE1.1 kmh NNE 3.1 mph5.0 kmh 30.04 in1017.3 mb 0.00 in0.0 mm 0.00 in0.0 mm 0.09 in2.3 mm
05:15 AM 60.3°F15.7°C 60.0°F15.6°C 99% 0.7 mph NNW1.1 kmh NNW 3.1 mph5.0 kmh 30.05 in1017.6 mb 0.00 in0.0 mm 0.00 in0.0 mm 0.09 in2.3 mm
05:30 AM 60.1°F15.6°C 59.8°F15.4°C 99% 0.7 mph N1.1 kmh N 4.5 mph7.2 kmh 30.05 in1017.6 mb 0.00 in0.0 mm 0.00 in0.0 mm 0.09 in2.3 mm
05:45 AM 60.1°F15.6°C 59.8°F15.4°C 99% Calm Calm 2.2 mph3.5 kmh 30.07 in1018.3 mb 0.00 in0.0 mm 0.00 in0.0 mm 0.09 in2.3 mm
06:00 AM 60.1°F15.6°C 59.8°F15.4°C 99% 2.2 mph NNE3.5 kmh NNE 3.8 mph6.1 kmh 30.08 in1018.6 mb 0.00 in0.0 mm 0.00 in0.0 mm 0.09 in2.3 mm
06:15 AM 59.9°F15.5°C 59.6°F15.3°C 99% 1.6 mph NW2.6 kmh NW 4.5 mph7.2 kmh 30.09 in1019.0 mb 0.00 in0.0 mm 0.00 in0.0 mm 0.09 in2.3 mm
06:30 AM 59.7°F15.4°C 59.5°F15.3°C 99% Calm Calm 3.8 mph6.1 kmh 30.09 in1019.0 mb 0.01 in0.3 mm 0.04 in1.0 mm 0.11 in2.8 mm
06:45 AM 59.5°F15.3°C 59.3°F15.2°C 99% 0.7 mph WSW1.1 kmh WSW 3.1 mph5.0 kmh 30.11 in1019.6 mb 0.07 in1.8 mm 0.24 in6.1 mm 0.17 in4.3 mm
07:00 AM 59.4°F15.2°C 59.1°F15.1°C 99% 1.6 mph NNW2.6 kmh NNW 5.4 mph8.7 kmh 30.13 in1020.3 mb 0.15 in3.8 mm 0.11 in2.8 mm 0.25 in6.4 mm
07:15 AM 58.8°F14.9°C 58.6°F14.8°C 99% 1.6 mph N2.6 kmh N 8.3 mph13.4 kmh 30.11 in1019.6 mb 0.20 in5.1 mm 0.20 in5.1 mm 0.30 in7.6 mm
07:30 AM 58.5°F14.7°C 58.2°F14.6°C 99% 3.1 mph N5.0 kmh N 9.2 mph14.8 kmh 30.11 in1019.6 mb 0.20 in5.1 mm 0.00 in0.0 mm 0.31 in7.9 mm
07:45 AM 58.1°F14.5°C 57.8°F14.3°C 99% 0.7 mph N1.1 kmh N 9.2 mph14.8 kmh 30.12 in1020.0 mb 0.15 in3.8 mm 0.00 in0.0 mm 0.32 in8.1 mm
08:00 AM 57.7°F14.3°C 57.5°F14.2°C 99% 3.1 mph N5.0 kmh N 11.4 mph18.3 kmh 30.14 in1020.7 mb 0.06 in1.5 mm 0.00 in0.0 mm 0.32 in8.1 mm
08:15 AM 57.2°F14.0°C 56.9°F13.8°C 99% 2.2 mph N3.5 kmh N 6.0 mph9.7 kmh 30.15 in1021.0 mb 0.02 in0.5 mm 0.00 in0.0 mm 0.33 in8.4 mm
08:30 AM 57.0°F13.9°C 56.8°F13.8°C 99% 1.6 mph N2.6 kmh N 10.7 mph17.2 kmh 30.15 in1021.0 mb 0.02 in0.5 mm 0.00 in0.0 mm 0.33 in8.4 mm
08:45 AM 56.8°F13.8°C 56.6°F13.7°C 99% 3.1 mph N5.0 kmh N 10.7 mph17.2 kmh 30.16 in1021.3 mb 0.01 in0.3 mm 0.00 in0.0 mm 0.33 in8.4 mm
09:00 AM 56.8°F13.8°C 56.6°F13.7°C 99% 0.7 mph NNE1.1 kmh NNE 4.5 mph7.2 kmh 30.17 in1021.7 mb 0.01 in0.3 mm 0.00 in0.0 mm 0.33 in8.4 mm
09:15 AM 57.0°F13.9°C 56.8°F13.8°C 99% 0.7 mph N1.1 kmh N 4.5 mph7.2 kmh 30.19 in1022.4 mb 0.00 in0.0 mm 0.00 in0.0 mm 0.33 in8.4 mm
09:30 AM 57.0°F13.9°C 56.8°F13.8°C 99% 0.7 mph N1.1 kmh N 6.0 mph9.7 kmh 30.19 in1022.4 mb 0.00 in0.0 mm 0.00 in0.0 mm 0.33 in8.4 mm
09:45 AM 57.0°F13.9°C 56.8°F13.8°C 99% 1.6 mph NNW2.6 kmh NNW 7.6 mph12.2 kmh 30.19 in1022.4 mb 0.01 in0.3 mm 0.04 in1.0 mm 0.34 in8.6 mm
10:00 AM 57.2°F14.0°C 56.9°F13.8°C 99% 1.6 mph N2.6 kmh N 7.6 mph12.2 kmh 30.19 in1022.4 mb 0.01 in0.3 mm 0.00 in0.0 mm 0.34 in8.6 mm
10:15 AM 55.6°F13.1°C 55.3°F12.9°C 99% 4.5 mph N7.2 kmh N 16.8 mph27.0 kmh 30.19 in1022.4 mb 0.01 in0.3 mm 0.00 in0.0 mm 0.34 in8.6 mm
10:30 AM 54.5°F12.5°C 54.2°F12.3°C 99% 3.1 mph N5.0 kmh N 14.5 mph23.3 kmh 30.20 in1022.7 mb 0.01 in0.3 mm 0.00 in0.0 mm 0.34 in8.6 mm
10:45 AM 53.6°F12.0°C 53.3°F11.8°C 99% 6.0 mph N9.7 kmh N 13.6 mph21.9 kmh 30.21 in1023.0 mb 0.07 in1.8 mm 0.24 in6.1 mm 0.41 in10.4 mm
11:00 AM 53.1°F11.7°C 52.8°F11.6°C 99% 3.1 mph N5.0 kmh N 9.8 mph15.8 kmh 30.24 in1024.0 mb 0.12 in3.0 mm 0.07 in1.8 mm 0.46 in11.7 mm
11:15 AM 52.5°F11.4°C 52.3°F11.3°C 99% 6.0 mph NE9.7 kmh NE 10.7 mph17.2 kmh 30.21 in1023.0 mb 0.15 in3.8 mm 0.12 in3.0 mm 0.50 in12.7 mm
11:30 AM 52.3°F11.3°C 52.1°F11.2°C 99% 3.8 mph N6.1 kmh N 9.8 mph15.8 kmh 30.23 in1023.7 mb 0.20 in5.1 mm 0.20 in5.1 mm 0.54 in13.7 mm
11:45 AM 52.2°F11.2°C 51.9°F11.1°C 99% 3.8 mph N6.1 kmh N 8.3 mph13.4 kmh 30.25 in1024.4 mb 0.17 in4.3 mm 0.00 in0.0 mm 0.58 in14.7 mm
12:00 PM 52.3°F11.3°C 52.1°F11.2°C 99% 3.1 mph NNW5.0 kmh NNW 8.3 mph13.4 kmh 30.27 in1025.1 mb 0.17 in4.3 mm 0.00 in0.0 mm 0.63 in16.0 mm
12:15 PM 52.3°F11.3°C 52.1°F11.2°C 99% 2.2 mph N3.5 kmh N 9.8 mph15.8 kmh 30.28 in1025.4 mb 0.17 in4.3 mm 0.00 in0.0 mm 0.66 in16.8 mm
12:30 PM 51.8°F11.0°C 51.5°F10.8°C 99% 3.8 mph N6.1 kmh N 9.2 mph14.8 kmh 30.27 in1025.1 mb 0.15 in3.8 mm 0.00 in0.0 mm 0.70 in17.8 mm
12:45 PM 54.0°F12.2°C 53.7°F12.1°C 99% 2.2 mph N3.5 kmh N 10.7 mph17.2 kmh 30.27 in1025.1 mb 0.13 in3.3 mm 0.00 in0.0 mm 0.71 in18.0 mm
01:00 PM 51.3°F10.7°C 51.0°F10.6°C 99% 3.1 mph N5.0 kmh N 12.1 mph19.5 kmh 30.25 in1024.4 mb 0.08 in2.0 mm 0.00 in0.0 mm 0.72 in18.3 mm
01:15 PM 51.6°F10.9°C 51.4°F10.8°C 99% 3.1 mph NNE5.0 kmh NNE 9.8 mph15.8 kmh 30.24 in1024.0 mb 0.06 in1.5 mm 0.00 in0.0 mm 0.72 in18.3 mm
01:30 PM 34.0°F1.1°C 33.7°F0.9°C 99% 2.2 mph N3.5 kmh N 9.8 mph15.8 kmh 30.24 in1024.0 mb 0.02 in0.5 mm 0.00 in0.0 mm 0.72 in18.3 mm
01:45 PM 51.6°F10.9°C 51.4°F10.8°C 99% 1.6 mph NE2.6 kmh NE 6.0 mph9.7 kmh 30.21 in1023.0 mb 0.02 in0.5 mm 0.00 in0.0 mm 0.73 in18.5 mm
02:00 PM 55.0°F12.8°C 54.8°F12.7°C 99% 2.2 mph NNW3.5 kmh NNW 8.3 mph13.4 kmh 30.22 in1023.4 mb 0.01 in0.3 mm 0.00 in0.0 mm 0.73 in18.5 mm
02:15 PM 51.4°F10.8°C 51.2°F10.7°C 99% 3.1 mph NNW5.0 kmh NNW 9.2 mph14.8 kmh 30.25 in1024.4 mb 0.02 in0.5 mm 0.04 in1.0 mm 0.74 in18.8 mm
02:30 PM 51.1°F10.6°C 50.8°F10.4°C 99% 3.8 mph N6.1 kmh N 13.6 mph21.9 kmh 30.23 in1023.7 mb 0.02 in0.5 mm 0.00 in0.0 mm 0.74 in18.8 mm
02:45 PM 50.7°F10.4°C 50.5°F10.3°C 99% 1.6 mph N2.6 kmh N 8.3 mph13.4 kmh 30.23 in1023.7 mb 0.02 in0.5 mm 0.00 in0.0 mm 0.76 in19.3 mm
03:00 PM 50.2°F10.1°C 49.9°F9.9°C 99% 4.5 mph N7.2 kmh N 9.2 mph14.8 kmh 30.23 in1023.7 mb 0.02 in0.5 mm 0.00 in0.0 mm 0.76 in19.3 mm
03:15 PM 50.2°F10.1°C 49.9°F9.9°C 99% 1.6 mph NW2.6 kmh NW 6.9 mph11.1 kmh 30.26 in1024.7 mb 0.01 in0.3 mm 0.00 in0.0 mm 0.76 in19.3 mm
03:30 PM 49.8°F9.9°C 49.6°F9.8°C 99% 2.2 mph N3.5 kmh N 7.6 mph12.2 kmh 30.27 in1025.1 mb 0.01 in0.3 mm 0.00 in0.0 mm 0.76 in19.3 mm
03:45 PM 42.4°F5.8°C 42.2°F5.7°C 99% 4.5 mph NW7.2 kmh NW 9.8 mph15.8 kmh 30.29 in1025.7 mb 0.00 in0.0 mm 0.00 in0.0 mm 0.76 in19.3 mm
04:00 PM 49.3°F9.6°C 49.0°F9.4°C 99% 3.8 mph N6.1 kmh N 10.7 mph17.2 kmh 30.29 in1025.7 mb 0.00 in0.0 mm 0.00 in0.0 mm 0.76 in19.3 mm
04:15 PM 49.5°F9.7°C 49.2°F9.6°C 99% 3.1 mph N5.0 kmh N 6.0 mph9.7 kmh 30.30 in1026.1 mb 0.00 in0.0 mm 0.00 in0.0 mm 0.76 in19.3 mm
04:30 PM 48.9°F9.4°C 48.7°F9.3°C 99% 3.8 mph N6.1 kmh N 9.8 mph15.8 kmh 30.30 in1026.1 mb 0.00 in0.0 mm 0.00 in0.0 mm 0.76 in19.3 mm
04:45 PM 48.4°F9.1°C 48.1°F8.9°C 99% 3.1 mph N5.0 kmh N 7.6 mph12.2 kmh 30.29 in1025.7 mb 0.00 in0.0 mm 0.00 in0.0 mm 0.76 in19.3 mm
05:00 PM 48.2°F9.0°C 47.9°F8.8°C 99% 2.2 mph N3.5 kmh N 8.3 mph13.4 kmh 30.30 in1026.1 mb 0.00 in0.0 mm 0.00 in0.0 mm 0.76 in19.3 mm
05:15 PM 48.0°F8.9°C 47.8°F8.8°C 99% 0.7 mph N1.1 kmh N 6.0 mph9.7 kmh 30.28 in1025.4 mb 0.00 in0.0 mm 0.00 in0.0 mm 0.76 in19.3 mm
05:30 PM 47.8°F8.8°C 47.6°F8.7°C 99% 0.7 mph N1.1 kmh N 10.7 mph17.2 kmh 30.28 in1025.4 mb 0.00 in0.0 mm 0.00 in0.0 mm 0.76 in19.3 mm
05:45 PM 47.7°F8.7°C 47.4°F8.6°C 99% 0.7 mph N1.1 kmh N 7.6 mph12.2 kmh 30.30 in1026.1 mb 0.00 in0.0 mm 0.00 in0.0 mm 0.76 in19.3 mm
06:00 PM 47.3°F8.5°C 47.0°F8.3°C 99% 2.2 mph N3.5 kmh N 8.3 mph13.4 kmh 30.29 in1025.7 mb 0.00 in0.0 mm 0.00 in0.0 mm 0.76 in19.3 mm
06:15 PM 46.9°F8.3°C 46.7°F8.2°C 99% 2.2 mph NNE3.5 kmh NNE 10.7 mph17.2 kmh 30.27 in1025.1 mb 0.00 in0.0 mm 0.00 in0.0 mm 0.76 in19.3 mm
06:30 PM 46.8°F8.2°C 46.5°F8.1°C 99% 3.1 mph NNW5.0 kmh NNW 9.2 mph14.8 kmh 30.30 in1026.1 mb 0.00 in0.0 mm 0.00 in0.0 mm 0.76 in19.3 mm
06:45 PM 46.6°F8.1°C 46.3°F7.9°C 99% 0.7 mph N1.1 kmh N 6.9 mph11.1 kmh 30.32 in1026.8 mb 0.00 in0.0 mm 0.00 in0.0 mm 0.76 in19.3 mm
07:00 PM 46.4°F8.0°C 46.1°F7.8°C 99% 2.2 mph N3.5 kmh N 9.8 mph15.8 kmh 30.32 in1026.8 mb 0.00 in0.0 mm 0.00 in0.0 mm 0.76 in19.3 mm
07:15 PM 46.0°F7.8°C 45.8°F7.7°C 99% 2.2 mph NNW3.5 kmh NNW 8.3 mph13.4 kmh 30.32 in1026.8 mb 0.00 in0.0 mm 0.00 in0.0 mm 0.76 in19.3 mm
07:30 PM 45.9°F7.7°C 45.6°F7.6°C 99% 2.2 mph NW3.5 kmh NW 6.9 mph11.1 kmh 30.33 in1027.1 mb 0.00 in0.0 mm 0.00 in0.0 mm 0.76 in19.3 mm
07:45 PM 45.7°F7.6°C 45.4°F7.4°C 99% 1.6 mph N2.6 kmh N 6.9 mph11.1 kmh 30.32 in1026.8 mb 0.00 in0.0 mm 0.00 in0.0 mm 0.76 in19.3 mm
08:00 PM 45.5°F7.5°C 45.2°F7.3°C 99% 0.7 mph N1.1 kmh N 6.0 mph9.7 kmh 30.34 in1027.4 mb 0.00 in0.0 mm 0.00 in0.0 mm 0.76 in19.3 mm
08:15 PM 45.1°F7.3°C 44.9°F7.2°C 99% 3.1 mph NNE5.0 kmh NNE 7.6 mph12.2 kmh 30.33 in1027.1 mb 0.00 in0.0 mm 0.00 in0.0 mm 0.76 in19.3 mm
08:30 PM 45.1°F7.3°C 44.9°F7.2°C 99% 2.2 mph NNE3.5 kmh NNE 7.6 mph12.2 kmh 30.32 in1026.8 mb 0.00 in0.0 mm 0.00 in0.0 mm 0.76 in19.3 mm
08:45 PM 45.0°F7.2°C 44.7°F7.1°C 99% 2.2 mph N3.5 kmh N 8.3 mph13.4 kmh 30.30 in1026.1 mb 0.00 in0.0 mm 0.00 in0.0 mm 0.76 in19.3 mm
09:00 PM 44.8°F7.1°C 44.5°F6.9°C 99% 3.1 mph N5.0 kmh N 7.6 mph12.2 kmh 30.32 in1026.8 mb 0.00 in0.0 mm 0.00 in0.0 mm 0.76 in19.3 mm
09:15 PM 44.8°F7.1°C 44.5°F6.9°C 99% 1.6 mph NNW2.6 kmh NNW 7.6 mph12.2 kmh 30.33 in1027.1 mb 0.00 in0.0 mm 0.00 in0.0 mm 0.76 in19.3 mm
09:30 PM 44.6°F7.0°C 44.3°F6.8°C 99% 1.6 mph NNE2.6 kmh NNE 7.6 mph12.2 kmh 30.33 in1027.1 mb 0.00 in0.0 mm 0.00 in0.0 mm 0.76 in19.3 mm
09:45 PM 44.6°F7.0°C 44.3°F6.8°C 99% 0.7 mph N1.1 kmh N 5.4 mph8.7 kmh 30.32 in1026.8 mb 0.00 in0.0 mm 0.00 in0.0 mm 0.76 in19.3 mm
10:00 PM 44.4°F6.9°C 44.2°F6.8°C 99% 0.7 mph NNW1.1 kmh NNW 6.0 mph9.7 kmh 30.33 in1027.1 mb 0.00 in0.0 mm 0.00 in0.0 mm 0.76 in19.3 mm
10:15 PM 44.4°F6.9°C 44.2°F6.8°C 99% 4.5 mph NNE7.2 kmh NNE 7.6 mph12.2 kmh 30.33 in1027.1 mb 0.00 in0.0 mm 0.00 in0.0 mm 0.76 in19.3 mm
10:30 PM 44.2°F6.8°C 44.0°F6.7°C 99% 0.7 mph NNW1.1 kmh NNW 5.4 mph8.7 kmh 30.34 in1027.4 mb 0.00 in0.0 mm 0.00 in0.0 mm 0.76 in19.3 mm
10:45 PM 44.1°F6.7°C 43.8°F6.6°C 99% 2.2 mph N3.5 kmh N 6.0 mph9.7 kmh 30.33 in1027.1 mb 0.00 in0.0 mm 0.00 in0.0 mm 0.76 in19.3 mm
11:00 PM 44.1°F6.7°C 43.8°F6.6°C 99% 1.6 mph N2.6 kmh N 8.3 mph13.4 kmh 30.32 in1026.8 mb 0.00 in0.0 mm 0.00 in0.0 mm 0.76 in19.3 mm
11:15 PM 43.9°F6.6°C 43.6°F6.4°C 99% 1.6 mph N2.6 kmh N 6.0 mph9.7 kmh 30.34 in1027.4 mb 0.00 in0.0 mm 0.00 in0.0 mm 0.76 in19.3 mm
11:30 PM 43.9°F6.6°C 43.6°F6.4°C 99% 0.7 mph N1.1 kmh N 6.0 mph9.7 kmh 30.34 in1027.4 mb 0.00 in0.0 mm 0.00 in0.0 mm 0.76 in19.3 mm
11:45 PM 43.7°F6.5°C 43.4°F6.3°C 99% 2.2 mph NNE3.5 kmh NNE 7.6 mph12.2 kmh 30.32 in1026.8 mb 0.00 in0.0 mm 0.00 in0.0 mm 0.76 in19.3 mm